createdAt,value
2022-07-29T00:01:54.506Z,20.80
2022-07-29T00:04:21.852Z,20.70
2022-07-29T00:06:48.970Z,20.70
2022-07-29T00:09:15.769Z,20.70
2022-07-29T00:11:42.889Z,20.60
2022-07-29T00:14:09.794Z,20.60
2022-07-29T00:16:36.747Z,20.60
2022-07-29T00:19:04.323Z,20.50
2022-07-29T00:21:31.181Z,20.50
2022-07-29T00:23:58.246Z,20.50
2022-07-29T00:26:25.160Z,20.40
2022-07-29T00:28:51.947Z,20.40
2022-07-29T00:31:18.856Z,20.30
2022-07-29T00:33:45.718Z,20.40
2022-07-29T00:36:12.506Z,20.30
2022-07-29T00:38:39.379Z,20.30
2022-07-29T00:41:06.235Z,20.20
2022-07-29T00:43:33.319Z,20.20
2022-07-29T00:46:00.117Z,20.20
2022-07-29T00:48:26.915Z,20.20
2022-07-29T00:50:54.018Z,20.20
2022-07-29T00:53:21.263Z,20.10
2022-07-29T00:55:48.950Z,20.00
2022-07-29T00:58:16.042Z,20.10
2022-07-29T01:00:43.576Z,20.10
2022-07-29T01:03:13.358Z,20.10
2022-07-29T01:05:50.595Z,20.10
2022-07-29T01:08:20.602Z,20.00
2022-07-29T01:10:48.736Z,20.10
2022-07-29T01:13:17.359Z,20.00
2022-07-29T01:16:11.764Z,20.00
2022-07-29T01:18:47.081Z,20.00
2022-07-29T01:21:40.326Z,20.00
2022-07-29T01:24:43.141Z,20.00
2022-07-29T01:27:53.607Z,20.00
2022-07-29T01:30:26.057Z,20.00
2022-07-29T01:33:04.216Z,19.90
2022-07-29T01:35:40.797Z,19.90
2022-07-29T01:38:21.363Z,19.90
2022-07-29T01:40:55.255Z,19.90
2022-07-29T01:43:28.234Z,19.80
2022-07-29T01:46:05.505Z,19.90
2022-07-29T01:48:47.927Z,19.80
2022-07-29T01:51:49.808Z,19.80
2022-07-29T01:54:33.162Z,19.80
2022-07-29T01:57:02.650Z,19.80
2022-07-29T01:59:31.589Z,19.70
2022-07-29T02:02:00.959Z,19.60
2022-07-29T02:04:31.880Z,19.70
2022-07-29T02:07:05.925Z,19.70
2022-07-29T02:09:37.442Z,19.60
2022-07-29T02:12:08.551Z,19.60
2022-07-29T02:14:43.264Z,19.60
2022-07-29T02:17:12.773Z,19.60
2022-07-29T02:19:41.914Z,19.60
2022-07-29T02:22:11.859Z,19.60
2022-07-29T02:24:41.337Z,19.50
2022-07-29T02:27:10.310Z,19.50
2022-07-29T02:29:40.731Z,19.60
2022-07-29T02:32:12.082Z,19.50
2022-07-29T02:34:41.298Z,19.50
2022-07-29T02:37:12.247Z,19.40
2022-07-29T02:39:43.050Z,19.40
2022-07-29T02:42:16.573Z,19.40
2022-07-29T02:44:44.247Z,19.40
2022-07-29T02:47:28.926Z,19.40
2022-07-29T02:50:10.414Z,19.40
2022-07-29T02:52:53.153Z,19.40
2022-07-29T02:55:43.278Z,19.50
2022-07-29T02:58:29.497Z,19.40
2022-07-29T03:01:04.032Z,19.40
2022-07-29T03:03:39.631Z,19.30
2022-07-29T03:06:09.469Z,19.40
2022-07-29T03:08:57.768Z,19.40
2022-07-29T03:11:40.126Z,19.40
2022-07-29T03:14:15.680Z,19.40
2022-07-29T03:16:43.393Z,19.40
2022-07-29T03:19:10.424Z,19.40
2022-07-29T03:21:37.277Z,19.40
2022-07-29T03:24:09.803Z,19.50
2022-07-29T03:26:37.355Z,19.50
2022-07-29T03:29:04.326Z,19.50
2022-07-29T03:31:31.400Z,19.50
2022-07-29T03:33:58.620Z,19.50
2022-07-29T03:36:25.820Z,19.50
2022-07-29T03:38:53.343Z,19.50
2022-07-29T03:41:23.489Z,19.50
2022-07-29T03:43:52.786Z,19.50
2022-07-29T03:46:25.484Z,19.50
2022-07-29T03:48:58.221Z,19.60
2022-07-29T03:51:33.174Z,19.50
2022-07-29T03:54:13.854Z,19.50
2022-07-29T03:56:49.068Z,19.50
2022-07-29T03:59:20.464Z,19.50
2022-07-29T04:01:49.312Z,19.50
2022-07-29T04:04:16.862Z,19.50
2022-07-29T04:06:48.226Z,19.50
2022-07-29T04:09:15.469Z,19.60
2022-07-29T04:12:01.952Z,19.60
2022-07-29T04:14:36.003Z,19.60
2022-07-29T04:17:05.117Z,19.60
2022-07-29T04:19:33.019Z,19.60
2022-07-29T04:22:01.079Z,19.60
2022-07-29T04:24:28.864Z,19.70
2022-07-29T04:26:56.094Z,19.70
2022-07-29T04:29:23.161Z,19.70
2022-07-29T04:31:49.948Z,19.80
2022-07-29T04:34:17.080Z,19.80
2022-07-29T04:36:44.157Z,19.80
2022-07-29T04:39:11.347Z,19.90
2022-07-29T04:41:38.237Z,19.90
2022-07-29T04:44:07.653Z,20.00
2022-07-29T04:46:36.986Z,20.00
2022-07-29T04:49:04.737Z,20.10
2022-07-29T04:51:32.078Z,20.10
2022-07-29T04:53:59.004Z,20.10
2022-07-29T04:56:25.807Z,20.10
2022-07-29T04:58:52.692Z,20.10
2022-07-29T05:01:20.210Z,20.20
2022-07-29T05:03:47.250Z,20.20
2022-07-29T05:06:14.048Z,20.20
2022-07-29T05:08:41.838Z,20.20
2022-07-29T05:11:12.533Z,20.30
2022-07-29T05:13:46.143Z,20.30
2022-07-29T05:16:14.622Z,20.30
2022-07-29T05:18:44.287Z,20.40
2022-07-29T05:21:11.117Z,20.40
2022-07-29T05:23:37.922Z,20.50
2022-07-29T05:26:04.767Z,20.50
2022-07-29T05:28:35.997Z,20.70
2022-07-29T05:31:03.132Z,20.70
2022-07-29T05:33:35.419Z,20.80
2022-07-29T05:36:08.363Z,20.90
2022-07-29T05:38:36.953Z,21.00
2022-07-29T05:41:05.564Z,21.10
2022-07-29T05:43:33.093Z,21.10
2022-07-29T05:46:00.661Z,21.20
2022-07-29T05:48:28.399Z,21.30
2022-07-29T05:50:56.052Z,21.30
2022-07-29T05:53:23.950Z,21.40
2022-07-29T05:55:51.769Z,21.40
2022-07-29T05:58:19.291Z,21.40
2022-07-29T06:00:46.209Z,21.60
2022-07-29T06:03:13.365Z,21.50
2022-07-29T06:05:40.232Z,21.50
2022-07-29T06:08:08.279Z,21.60
2022-07-29T06:10:38.865Z,21.60
2022-07-29T06:13:05.859Z,21.70
2022-07-29T06:15:32.967Z,21.80
2022-07-29T06:18:01.724Z,21.90
2022-07-29T06:20:31.465Z,21.90
2022-07-29T06:22:59.235Z,22.20
2022-07-29T06:25:26.686Z,22.20
2022-07-29T06:27:53.836Z,22.40
2022-07-29T06:30:20.934Z,22.50
2022-07-29T06:32:48.192Z,22.70
2022-07-29T06:35:38.611Z,22.70
2022-07-29T06:38:03.934Z,22.90
2022-07-29T06:41:01.545Z,23.00
2022-07-29T06:43:34.543Z,23.20
2022-07-29T06:46:04.312Z,23.30
2022-07-29T06:48:32.061Z,23.40
2022-07-29T06:50:59.928Z,23.50
2022-07-29T06:53:28.793Z,23.60
2022-07-29T06:55:56.074Z,23.70
2022-07-29T06:58:22.959Z,23.80
2022-07-29T07:00:49.866Z,23.80
2022-07-29T07:03:18.606Z,23.90
2022-07-29T07:05:46.700Z,24.00
2022-07-29T07:08:14.113Z,24.00
2022-07-29T07:10:41.124Z,24.10
2022-07-29T07:13:08.188Z,24.10
2022-07-29T07:15:39.161Z,24.30
2022-07-29T07:18:08.230Z,24.30
2022-07-29T07:20:36.477Z,24.30
2022-07-29T07:23:03.781Z,24.40
2022-07-29T07:25:31.246Z,24.50
2022-07-29T07:27:58.104Z,24.60
2022-07-29T07:30:25.098Z,24.70
2022-07-29T07:32:52.100Z,24.60
2022-07-29T07:35:19.152Z,24.80
2022-07-29T07:37:46.271Z,24.80
2022-07-29T07:40:18.610Z,24.80
2022-07-29T07:42:46.011Z,24.90
2022-07-29T07:45:15.869Z,24.90
2022-07-29T07:47:43.584Z,24.90
2022-07-29T07:50:18.501Z,25.00
2022-07-29T07:52:59.380Z,25.00
2022-07-29T07:55:27.388Z,25.10
2022-07-29T07:57:57.833Z,25.00
2022-07-29T08:00:24.660Z,25.10
2022-07-29T08:02:51.803Z,25.20
2022-07-29T08:05:18.948Z,25.20
2022-07-29T08:07:47.647Z,25.20
2022-07-29T08:10:38.481Z,25.20
2022-07-29T08:13:08.170Z,25.20
2022-07-29T08:15:36.023Z,25.20
2022-07-29T08:18:08.444Z,25.30
2022-07-29T08:20:37.154Z,25.40
2022-07-29T08:23:05.710Z,25.40
2022-07-29T08:25:33.653Z,25.50
2022-07-29T08:28:07.149Z,25.60
2022-07-29T08:30:34.754Z,25.70
2022-07-29T08:33:01.893Z,25.70
2022-07-29T08:35:33.338Z,25.80
2022-07-29T08:38:02.000Z,25.90
2022-07-29T08:40:32.258Z,25.90
2022-07-29T08:43:08.198Z,26.00
2022-07-29T08:45:48.664Z,26.10
2022-07-29T08:48:21.228Z,26.20
2022-07-29T08:50:57.535Z,26.30
2022-07-29T08:53:28.003Z,26.30
2022-07-29T08:55:55.891Z,26.30
2022-07-29T08:58:25.230Z,26.30
2022-07-29T09:00:55.702Z,26.40
2022-07-29T09:03:28.373Z,26.40
2022-07-29T09:05:55.564Z,26.50
2022-07-29T09:08:24.027Z,26.50
2022-07-29T09:10:52.236Z,26.50
2022-07-29T09:13:19.173Z,26.60
2022-07-29T09:15:46.534Z,26.60
2022-07-29T09:18:20.375Z,26.70
2022-07-29T09:21:15.986Z,26.70
2022-07-29T09:24:00.839Z,26.80
2022-07-29T09:26:31.865Z,26.80
2022-07-29T09:29:01.171Z,26.90
2022-07-29T09:31:36.772Z,27.00
2022-07-29T09:34:05.353Z,27.10
2022-07-29T09:36:39.031Z,27.10
2022-07-29T09:39:06.099Z,27.30
2022-07-29T09:41:47.923Z,27.20
2022-07-29T09:44:15.808Z,27.30
2022-07-29T09:46:59.655Z,27.40
2022-07-29T09:49:26.842Z,27.20
2022-07-29T09:52:12.136Z,27.40
2022-07-29T09:54:39.009Z,27.60
2022-07-29T09:57:27.239Z,27.60
2022-07-29T10:00:09.883Z,27.70
2022-07-29T10:02:39.146Z,27.80
2022-07-29T10:05:36.471Z,27.90
2022-07-29T10:08:04.756Z,28.10
2022-07-29T10:10:35.142Z,28.20
2022-07-29T10:13:12.082Z,28.30
2022-07-29T10:15:46.185Z,28.50
2022-07-29T10:18:15.186Z,28.60
2022-07-29T10:20:42.524Z,28.70
2022-07-29T10:23:10.778Z,28.80
2022-07-29T10:25:37.925Z,28.90
2022-07-29T10:28:07.547Z,29.00
2022-07-29T10:30:35.845Z,29.10
2022-07-29T10:33:15.918Z,29.20
2022-07-29T10:36:08.471Z,29.20
2022-07-29T10:38:55.430Z,29.20
2022-07-29T10:41:55.056Z,29.30
2022-07-29T10:44:26.137Z,29.30
2022-07-29T10:46:54.515Z,29.20
2022-07-29T10:49:30.317Z,29.20
2022-07-29T10:52:10.392Z,29.10
2022-07-29T10:54:46.039Z,29.10
2022-07-29T10:57:16.673Z,29.20
2022-07-29T11:00:06.075Z,29.30
2022-07-29T11:02:41.837Z,29.40
2022-07-29T11:05:22.159Z,29.50
2022-07-29T11:08:20.287Z,29.60
2022-07-29T11:10:53.108Z,29.70
2022-07-29T11:13:46.524Z,29.80
2022-07-29T11:16:16.069Z,29.90
2022-07-29T11:19:14.485Z,29.90
2022-07-29T11:21:55.329Z,29.90
2022-07-29T11:24:32.992Z,30.00
2022-07-29T11:27:13.600Z,30.00
2022-07-29T11:29:51.985Z,30.00
2022-07-29T11:32:23.444Z,30.10
2022-07-29T11:35:38.270Z,30.10
2022-07-29T11:38:29.179Z,30.10
2022-07-29T11:41:30.084Z,30.10
2022-07-29T11:44:01.363Z,30.10
2022-07-29T11:46:50.068Z,30.20
2022-07-29T11:49:32.127Z,30.20
2022-07-29T11:52:04.876Z,30.30
2022-07-29T11:54:57.319Z,30.30
2022-07-29T11:57:36.373Z,30.30
2022-07-29T12:00:14.586Z,30.20
2022-07-29T12:02:48.102Z,30.40
2022-07-29T12:05:23.993Z,30.40
2022-07-29T12:08:14.615Z,30.40
2022-07-29T12:10:43.774Z,30.50
2022-07-29T12:13:12.265Z,30.40
2022-07-29T12:15:45.817Z,30.40
2022-07-29T12:18:24.439Z,30.40
2022-07-29T12:21:03.385Z,30.30
2022-07-29T12:23:35.428Z,30.30
2022-07-29T12:26:07.434Z,30.30
2022-07-29T12:28:40.684Z,30.30
2022-07-29T12:31:41.824Z,30.30
2022-07-29T12:34:03.272Z,30.30
2022-07-29T12:36:30.410Z,30.30
2022-07-29T12:38:57.875Z,30.30
2022-07-29T12:41:24.829Z,30.30
2022-07-29T12:43:55.989Z,30.30
2022-07-29T12:46:22.931Z,30.30
2022-07-29T12:48:57.760Z,30.40
2022-07-29T12:51:51.022Z,30.40
2022-07-29T12:54:17.913Z,30.60
2022-07-29T12:56:46.111Z,30.60
2022-07-29T12:59:16.517Z,30.70
2022-07-29T13:01:44.274Z,30.70
2022-07-29T13:04:12.194Z,30.80
2022-07-29T13:06:46.079Z,30.90
2022-07-29T13:09:20.119Z,31.00
2022-07-29T13:11:52.874Z,31.00
2022-07-29T13:14:34.409Z,31.10
2022-07-29T13:17:09.086Z,31.20
2022-07-29T13:19:49.347Z,31.20
2022-07-29T13:22:20.346Z,31.20
2022-07-29T13:25:07.627Z,31.20
2022-07-29T13:27:38.215Z,31.20
2022-07-29T13:30:10.764Z,31.30
2022-07-29T13:32:38.689Z,31.30
2022-07-29T13:35:09.034Z,31.40
2022-07-29T13:37:40.406Z,31.50
2022-07-29T13:40:10.607Z,31.50
2022-07-29T13:42:37.688Z,31.60
2022-07-29T13:45:06.174Z,31.60
2022-07-29T13:47:33.509Z,31.60
2022-07-29T13:50:02.350Z,31.70
2022-07-29T13:52:29.762Z,31.70
2022-07-29T13:54:57.250Z,31.70
2022-07-29T13:57:24.050Z,31.70
2022-07-29T13:59:54.412Z,31.70
2022-07-29T14:02:25.769Z,31.80
2022-07-29T14:04:55.124Z,31.70
2022-07-29T14:07:23.634Z,31.70
2022-07-29T14:09:51.098Z,31.70
2022-07-29T14:12:18.399Z,31.80
2022-07-29T14:14:47.338Z,31.70
2022-07-29T14:17:15.151Z,31.80
2022-07-29T14:19:42.300Z,31.80
2022-07-29T14:22:10.693Z,31.80
2022-07-29T14:24:38.364Z,31.80
2022-07-29T14:27:08.750Z,31.80
2022-07-29T14:29:38.137Z,31.80
2022-07-29T14:32:11.591Z,31.80
2022-07-29T14:34:38.919Z,31.90
2022-07-29T14:37:07.061Z,31.90
2022-07-29T14:39:42.540Z,31.90
2022-07-29T14:42:11.582Z,31.90
2022-07-29T14:44:42.436Z,31.80
2022-07-29T14:47:09.908Z,31.80
2022-07-29T14:49:36.917Z,31.80
2022-07-29T14:52:04.643Z,31.80
2022-07-29T14:54:31.395Z,31.80
2022-07-29T14:57:06.831Z,31.80
2022-07-29T14:59:33.673Z,31.80
2022-07-29T15:02:00.842Z,31.80
2022-07-29T15:04:28.199Z,31.80
2022-07-29T15:06:55.226Z,31.80
2022-07-29T15:09:23.077Z,31.80
2022-07-29T15:11:50.038Z,31.80
2022-07-29T15:14:16.864Z,31.80
2022-07-29T15:16:46.608Z,31.80
2022-07-29T15:19:15.205Z,31.80
2022-07-29T15:21:48.872Z,31.80
2022-07-29T15:24:18.083Z,31.80
2022-07-29T15:26:46.351Z,31.90
2022-07-29T15:29:14.369Z,31.90
2022-07-29T15:31:41.544Z,31.80
2022-07-29T15:34:08.613Z,31.80
2022-07-29T15:36:51.907Z,31.80
2022-07-29T15:39:20.756Z,31.80
2022-07-29T15:41:51.130Z,31.90
2022-07-29T15:44:19.422Z,31.90
2022-07-29T15:47:04.304Z,31.90
2022-07-29T15:49:48.337Z,31.90
2022-07-29T15:52:25.496Z,31.90
2022-07-29T15:54:55.752Z,31.90
2022-07-29T15:57:24.737Z,32.60
2022-07-29T15:59:52.028Z,31.80
2022-07-29T16:02:19.032Z,31.80
2022-07-29T16:04:45.984Z,31.80
2022-07-29T16:07:12.906Z,31.70
2022-07-29T16:09:41.749Z,31.70
2022-07-29T16:12:15.470Z,31.50
2022-07-29T16:14:46.939Z,31.60
2022-07-29T16:17:14.769Z,31.50
2022-07-29T16:19:45.524Z,31.50
2022-07-29T16:22:13.250Z,31.50
2022-07-29T16:24:40.423Z,31.40
2022-07-29T16:27:07.925Z,31.40
2022-07-29T16:29:37.151Z,31.40
2022-07-29T16:32:06.485Z,31.40
2022-07-29T16:34:33.700Z,31.30
2022-07-29T16:37:00.833Z,31.30
2022-07-29T16:39:27.843Z,31.30
2022-07-29T16:41:58.293Z,31.20
2022-07-29T16:44:27.307Z,31.20
2022-07-29T16:46:56.161Z,31.20
2022-07-29T16:49:26.732Z,31.10
2022-07-29T16:51:54.848Z,31.10
2022-07-29T16:54:21.690Z,31.00
2022-07-29T16:56:48.773Z,31.00
2022-07-29T16:59:15.604Z,30.90
2022-07-29T17:01:42.606Z,30.90
2022-07-29T17:04:09.676Z,30.90
2022-07-29T17:06:40.139Z,30.80
2022-07-29T17:09:10.050Z,30.70
2022-07-29T17:11:51.824Z,30.70
2022-07-29T17:14:25.154Z,30.70
2022-07-29T17:17:01.018Z,30.70
2022-07-29T17:19:32.101Z,30.60
2022-07-29T17:22:07.034Z,30.60
2022-07-29T17:24:36.157Z,30.60
2022-07-29T17:27:02.916Z,30.70
2022-07-29T17:29:29.944Z,30.80
2022-07-29T17:31:57.937Z,30.80
2022-07-29T17:34:25.700Z,30.80
2022-07-29T17:36:52.509Z,30.90
2022-07-29T17:39:19.382Z,30.90
2022-07-29T17:41:47.075Z,30.90
2022-07-29T17:44:14.587Z,30.90
2022-07-29T17:46:41.967Z,30.90
2022-07-29T17:49:08.975Z,30.80
2022-07-29T17:51:35.998Z,30.80
2022-07-29T17:54:04.585Z,30.60
2022-07-29T17:56:31.655Z,30.60
2022-07-29T17:59:01.625Z,30.50
2022-07-29T18:01:28.989Z,30.40
2022-07-29T18:03:59.853Z,30.30
2022-07-29T18:06:27.025Z,30.30
2022-07-29T18:08:54.274Z,30.20
2022-07-29T18:11:22.427Z,30.10
2022-07-29T18:13:49.316Z,30.00
2022-07-29T18:16:16.274Z,29.90
2022-07-29T18:18:45.864Z,29.90
2022-07-29T18:21:12.809Z,29.70
2022-07-29T18:23:40.027Z,29.70
2022-07-29T18:26:07.000Z,29.60
2022-07-29T18:28:34.145Z,29.60
2022-07-29T18:31:02.533Z,29.50
2022-07-29T18:33:29.542Z,29.40
2022-07-29T18:36:10.494Z,29.30
2022-07-29T18:38:40.279Z,29.30
2022-07-29T18:41:07.354Z,29.20
2022-07-29T18:43:34.113Z,29.10
2022-07-29T18:46:00.974Z,29.00
2022-07-29T18:48:29.411Z,28.90
2022-07-29T18:50:56.219Z,28.90
2022-07-29T18:53:23.019Z,28.80
2022-07-29T18:55:49.819Z,28.80
2022-07-29T18:58:16.596Z,28.70
2022-07-29T19:00:43.462Z,28.60
2022-07-29T19:03:10.380Z,28.60
2022-07-29T19:05:37.279Z,28.50
2022-07-29T19:08:04.192Z,28.40
2022-07-29T19:10:31.587Z,28.50
2022-07-29T19:12:58.786Z,28.40
2022-07-29T19:15:26.051Z,28.30
2022-07-29T19:17:55.566Z,28.30
2022-07-29T19:20:24.665Z,28.10
2022-07-29T19:22:51.531Z,28.20
2022-07-29T19:25:19.610Z,28.10
2022-07-29T19:27:49.079Z,28.10
2022-07-29T19:30:16.238Z,28.00
2022-07-29T19:32:43.169Z,28.00
2022-07-29T19:35:25.337Z,27.90
2022-07-29T19:37:52.819Z,27.80
2022-07-29T19:40:20.067Z,27.80
2022-07-29T19:42:51.831Z,27.70
2022-07-29T19:45:20.763Z,27.70
2022-07-29T19:47:49.197Z,27.60
2022-07-29T19:50:17.344Z,27.60
2022-07-29T19:52:47.101Z,27.50
2022-07-29T19:55:15.014Z,27.50
2022-07-29T20:00:12.402Z,27.40
2022-07-29T20:02:41.602Z,27.40
2022-07-29T20:05:11.286Z,27.30
2022-07-29T20:07:40.245Z,27.30
2022-07-29T20:10:08.798Z,27.20
2022-07-29T20:12:38.005Z,27.20
2022-07-29T20:15:10.077Z,27.00
2022-07-29T20:17:43.098Z,27.00
2022-07-29T20:20:10.186Z,27.00
2022-07-29T20:22:37.774Z,26.90
2022-07-29T20:25:07.019Z,26.90
2022-07-29T20:27:36.997Z,26.80
2022-07-29T20:30:04.871Z,26.80
2022-07-29T20:32:33.424Z,26.70
2022-07-29T20:35:00.282Z,26.70
2022-07-29T20:37:27.085Z,26.60
2022-07-29T20:39:54.151Z,26.60
2022-07-29T20:42:21.147Z,26.50
2022-07-29T20:44:50.630Z,26.40
2022-07-29T20:47:17.412Z,26.40
2022-07-29T20:49:44.170Z,26.40
2022-07-29T20:52:11.030Z,26.30
2022-07-29T20:54:37.907Z,26.30
2022-07-29T20:57:04.796Z,26.30
2022-07-29T20:59:32.832Z,26.20
2022-07-29T21:01:59.709Z,26.20
2022-07-29T21:04:30.771Z,26.10
2022-07-29T21:06:58.388Z,26.10
2022-07-29T21:09:26.699Z,26.10
2022-07-29T21:11:53.494Z,26.00
2022-07-29T21:14:46.429Z,26.00
2022-07-29T21:17:14.585Z,26.00
2022-07-29T21:19:41.847Z,25.90
2022-07-29T21:22:08.879Z,25.90
2022-07-29T21:24:35.937Z,25.80
2022-07-29T21:27:21.969Z,25.80
2022-07-29T21:29:49.475Z,25.80
2022-07-29T21:32:29.535Z,25.80
2022-07-29T21:34:57.962Z,25.80
2022-07-29T21:37:24.958Z,25.70
2022-07-29T21:39:51.765Z,25.70
2022-07-29T21:42:18.765Z,25.70
2022-07-29T21:44:45.549Z,25.70
2022-07-29T21:47:12.596Z,25.60
2022-07-29T21:49:40.856Z,25.60
2022-07-29T21:52:09.044Z,25.60
2022-07-29T21:54:36.023Z,25.50
2022-07-29T21:57:03.538Z,25.50
2022-07-29T21:59:30.772Z,25.50
2022-07-29T22:02:00.897Z,25.50
2022-07-29T22:04:29.803Z,25.50
2022-07-29T22:06:58.471Z,25.50
2022-07-29T22:09:26.210Z,25.40
2022-07-29T22:11:54.101Z,25.40
2022-07-29T22:14:21.425Z,25.40
2022-07-29T22:16:49.070Z,25.30
2022-07-29T22:19:16.264Z,25.30
2022-07-29T22:21:43.368Z,25.30
2022-07-29T22:24:10.700Z,25.30
2022-07-29T22:26:38.729Z,25.20
2022-07-29T22:29:06.586Z,25.20
2022-07-29T22:31:33.840Z,25.10
2022-07-29T22:34:00.684Z,25.10
2022-07-29T22:36:27.493Z,25.10
2022-07-29T22:38:54.274Z,25.10
2022-07-29T22:41:21.100Z,25.10
2022-07-29T22:43:47.872Z,25.00
2022-07-29T22:46:14.695Z,25.00
2022-07-29T22:48:41.601Z,24.90
2022-07-29T22:51:08.639Z,24.90
2022-07-29T22:53:36.989Z,24.90
2022-07-29T22:56:04.394Z,24.90
2022-07-29T22:58:31.356Z,24.80
2022-07-29T23:00:58.199Z,24.80
2022-07-29T23:03:25.136Z,24.80
2022-07-29T23:05:52.021Z,24.80
2022-07-29T23:08:19.812Z,24.70
2022-07-29T23:10:46.926Z,24.70
2022-07-29T23:13:14.283Z,24.60
2022-07-29T23:15:41.466Z,24.60
2022-07-29T23:18:08.374Z,24.60
2022-07-29T23:20:36.143Z,24.50
2022-07-29T23:23:03.076Z,24.50
2022-07-29T23:25:29.853Z,24.50
2022-07-29T23:27:56.932Z,24.50
2022-07-29T23:30:24.130Z,24.50
2022-07-29T23:32:51.063Z,24.40
2022-07-29T23:35:18.282Z,24.40
2022-07-29T23:37:45.082Z,24.40
2022-07-29T23:40:14.403Z,24.30
2022-07-29T23:42:43.589Z,24.30
2022-07-29T23:45:13.180Z,24.30
2022-07-29T23:47:42.550Z,24.30
2022-07-29T23:50:12.541Z,24.30
2022-07-29T23:52:41.099Z,24.20
2022-07-29T23:55:36.742Z,24.20
2022-07-29T23:57:56.078Z,24.20
